KTPL/TPL METAR and TAF weather

Enter ICAO airport designator
Station Type Date Time Source
KTPL METAR 2018/12/19 02:51 UTC NOAA

KTPL 190251Z AUTO 15006KT 10SM BKN008 12/11 A3001 RMK AO2 SLP181 T01170111 53009


Station Type Date Time Source
KTPL Decoded METAR 2018/12/19 02:51 UTC NOAA

Temple, Draughon-Miller Central Texas Regional Airport, TX, United States (KTPL) 31-09N 097-24W
Dec 18, 2018 - 09:51 PM EST / 2018.12.19 0251 UTC
Wind: from the SSE (150 degrees) at 7 MPH (6 KT):0
Visibility: 10 mile(s):0
Sky conditions: mostly cloudy
Temperature: 53.1 F (11.7 C)
Dew Point: 52.0 F (11.1 C)
Relative Humidity: 96%
Pressure (altimeter): 30.01 in. Hg (1016 hPa)
Pressure tendency: 0.03 inches (0.9 hPa) higher than three hours ago
ob: KTPL 190251Z AUTO 15006KT 10SM BKN008 12/11 A3001 RMK AO2 SLP181 T01170111 53009
cycle: 3

Station Type Date Time Source
KTPL TAF UTC NOAA

Error!


Example: see airport list